createdAt,value
2023-04-27T00:01:15.604Z,87.71
2023-04-27T00:05:18.324Z,87.77
2023-04-27T00:07:20.244Z,88.71
2023-04-27T00:11:23.115Z,87.89
2023-04-27T00:15:26.063Z,87.93
2023-04-27T00:17:27.932Z,88
2023-04-27T00:21:31.500Z,88.77
2023-04-27T00:25:34.907Z,88.54
2023-04-27T00:27:35.961Z,88.7
2023-04-27T00:31:39.423Z,87.95
2023-04-27T00:33:40.661Z,88.34
2023-04-27T00:37:44.331Z,88.64
2023-04-27T00:41:47.790Z,88.97
2023-04-27T00:43:48.936Z,89.21
2023-04-27T00:47:52.196Z,89.95
2023-04-27T00:49:53.728Z,89.91
2023-04-27T00:53:56.517Z,89.81
2023-04-27T00:57:59.454Z,91.52
2023-04-27T01:00:00.752Z,91.32
2023-04-27T01:04:04.315Z,90.39
2023-04-27T01:08:07.010Z,90.61
2023-04-27T01:10:08.771Z,90.7
2023-04-27T01:14:12.136Z,90.29
2023-04-27T01:16:13.555Z,90.44
2023-04-27T01:20:15.972Z,90.63
2023-04-27T01:24:19.399Z,90.7
2023-04-27T01:26:21.300Z,90.67
2023-04-27T01:30:24.737Z,90.47
2023-04-27T01:32:26.364Z,90.44
2023-04-27T01:36:28.831Z,90.74
2023-04-27T01:40:32.592Z,91
2023-04-27T01:42:34.388Z,91.13
2023-04-27T01:46:37.058Z,91.26
2023-04-27T01:50:40.034Z,91.63
2023-04-27T01:52:41.539Z,91.87
2023-04-27T01:56:43.947Z,91.91
2023-04-27T01:58:45.516Z,91.88
2023-04-27T02:02:48.388Z,91.76
2023-04-27T02:06:52.128Z,91.8
2023-04-27T02:08:53.704Z,92.23
2023-04-27T02:12:56.753Z,93.12
2023-04-27T02:14:57.909Z,93.27
2023-04-27T02:19:00.670Z,93.3
2023-04-27T02:23:04.400Z,93.1
2023-04-27T02:25:06.008Z,93.2
2023-04-27T02:29:08.835Z,93.31
2023-04-27T02:33:11.959Z,93.52
2023-04-27T02:35:13.665Z,93.58
2023-04-27T02:39:16.846Z,93.64
2023-04-27T02:41:17.941Z,93.61
2023-04-27T02:43:19.536Z,93.63
2023-04-27T02:45:21.319Z,93.84
2023-04-27T02:49:24.176Z,93.82
2023-04-27T02:51:25.769Z,94.03
2023-04-27T02:53:27.292Z,94.25
2023-04-27T02:55:29.344Z,94.25
2023-04-27T02:57:31.280Z,94.21
2023-04-27T03:01:34.653Z,94.3
2023-04-27T03:05:37.993Z,94.44
2023-04-27T03:07:39.093Z,94.17
2023-04-27T03:11:42.283Z,94.05
2023-04-27T03:17:48.740Z,93.99
2023-04-27T03:21:49.058Z,94.11
2023-04-27T03:23:50.203Z,94.13
2023-04-27T03:27:53.317Z,94.8
2023-04-27T03:32:17.189Z,95.13
2023-04-27T03:33:58.707Z,95.2
2023-04-27T03:36:00.895Z,95.17
2023-04-27T03:38:02.147Z,95.29
2023-04-27T03:40:03.668Z,95.36
2023-04-27T03:44:06.435Z,95.35
2023-04-27T03:48:09.087Z,95.88
2023-04-27T03:50:10.499Z,95.69
2023-04-27T03:54:13.924Z,95.57
2023-04-27T03:56:15.936Z,95.59
2023-04-27T04:00:18.769Z,95.79
2023-04-27T04:04:21.813Z,95.73
2023-04-27T04:06:22.998Z,95.71
2023-04-27T04:10:26.335Z,95.56
2023-04-27T04:14:29.187Z,95.3
2023-04-27T04:16:31.049Z,95.19
2023-04-27T04:21:19.041Z,95.42
2023-04-27T04:25:22.243Z,95.54
2023-04-27T04:27:23.815Z,95.57
2023-04-27T04:31:27.508Z,95.57
2023-04-27T04:33:29.305Z,95.55
2023-04-27T04:37:32.087Z,95.51
2023-04-27T04:41:35.371Z,95.44
2023-04-27T04:43:36.841Z,95.33
2023-04-27T04:47:40.546Z,94.82
2023-04-27T04:51:43.365Z,94.25
2023-04-27T04:53:45.345Z,94.36
2023-04-27T04:57:48.024Z,94.36
2023-04-27T04:59:49.369Z,94.36
2023-04-27T05:03:52.028Z,94.25
2023-04-27T05:07:55.002Z,94.16
2023-04-27T05:09:56.753Z,93.94
2023-04-27T05:13:59.238Z,93.99
2023-04-27T05:16:00.692Z,93.68
2023-04-27T05:20:04.046Z,93.98
2023-04-27T05:24:07.198Z,92.79
2023-04-27T05:26:08.730Z,92.23
2023-04-27T05:30:10.986Z,91.44
2023-04-27T05:34:13.920Z,91.28
2023-04-27T05:36:15.598Z,91.48
2023-04-27T05:40:18.594Z,91.05
2023-04-27T05:42:19.689Z,90.81
2023-04-27T05:46:22.967Z,90.76
2023-04-27T05:50:25.823Z,90.48
2023-04-27T05:52:27.604Z,90.36
2023-04-27T05:56:30.108Z,90.06
2023-04-27T05:58:31.553Z,89.94
2023-04-27T06:02:34.725Z,89
2023-04-27T06:06:38.047Z,88.93
2023-04-27T06:08:39.979Z,88.9
2023-04-27T06:12:43.947Z,89.3
2023-04-27T06:16:44.962Z,89.16
2023-04-27T06:18:45.967Z,89.23
2023-04-27T06:22:49.487Z,88.25
2023-04-27T06:24:50.866Z,87.96
2023-04-27T06:26:52.567Z,87.64
2023-04-27T06:28:53.596Z,88.17
2023-04-27T06:32:56.644Z,88
2023-04-27T06:34:58.014Z,87.71
2023-04-27T06:36:59.518Z,86.99
2023-04-27T06:39:01.014Z,86.21
2023-04-27T06:41:02.439Z,85.8
2023-04-27T06:45:05.773Z,85.41
2023-04-27T06:49:09.278Z,86.23
2023-04-27T06:51:10.368Z,85.93
2023-04-27T06:55:14.072Z,85.13
2023-04-27T07:01:18.183Z,84.1
2023-04-27T07:05:20.565Z,83.38
2023-04-27T07:07:22.220Z,82.54
2023-04-27T07:09:27.359Z,82.25
2023-04-27T07:11:25.423Z,82.45
2023-04-27T07:15:27.731Z,83.11
2023-04-27T07:17:29.441Z,81.62
2023-04-27T07:21:32.153Z,80.4
2023-04-27T07:23:33.708Z,81.27
2023-04-27T07:27:35.866Z,77.28
2023-04-27T07:31:39.068Z,78.46
2023-04-27T07:33:41.429Z,78.73
2023-04-27T07:37:44.702Z,72.96
2023-04-27T07:39:46.215Z,73.87
2023-04-27T07:43:48.346Z,71.64
2023-04-27T07:47:51.476Z,70.87
2023-04-27T07:49:53.200Z,69
2023-04-27T07:53:56.038Z,68.28
2023-04-27T07:57:58.389Z,71.79
2023-04-27T07:59:59.611Z,71.23
2023-04-27T08:04:02.727Z,68.25
2023-04-27T08:06:04.012Z,67.8
2023-04-27T08:10:06.196Z,66.29
2023-04-27T08:14:09.504Z,65.54
2023-04-27T08:16:10.757Z,64.38
2023-04-27T08:20:13.034Z,62.95
2023-04-27T08:22:14.272Z,61.19
2023-04-27T08:26:17.489Z,62.79
2023-04-27T08:30:19.509Z,63.86
2023-04-27T08:32:20.415Z,63.12
2023-04-27T08:36:22.625Z,60.38
2023-04-27T08:40:25.868Z,59.51
2023-04-27T08:42:27.549Z,59.36
2023-04-27T08:46:30.112Z,60.55
2023-04-27T08:48:31.047Z,60.07
2023-04-27T08:50:32.230Z,58.18
2023-04-27T08:52:33.494Z,55.51
2023-04-27T08:56:35.946Z,57.79
2023-04-27T08:58:37.138Z,54.94
2023-04-27T09:02:39.716Z,54.68
2023-04-27T09:04:40.989Z,53.35
2023-04-27T09:08:44.189Z,54.21
2023-04-27T09:12:47.888Z,52.89
2023-04-27T09:14:49.354Z,55.69
2023-04-27T09:18:52.566Z,57.18
2023-04-27T09:20:54.325Z,52.26
2023-04-27T09:24:57.371Z,52.64
2023-04-27T09:28:59.816Z,50.12
2023-04-27T09:31:01.375Z,49.51
2023-04-27T09:35:04.157Z,52.29
2023-04-27T09:39:06.923Z,46.57
2023-04-27T09:41:07.809Z,45.23
2023-04-27T09:45:10.616Z,46.3
2023-04-27T09:47:12.358Z,43.98
2023-04-27T09:51:16.429Z,43.01
2023-04-27T09:55:19.411Z,40.96
2023-04-27T09:57:21.106Z,40.75
2023-04-27T10:01:23.917Z,43.73
2023-04-27T10:03:25.081Z,45.12
2023-04-27T10:07:27.657Z,42.4
2023-04-27T10:11:31.476Z,40.94
2023-04-27T10:13:32.608Z,43.59
2023-04-27T10:17:35.449Z,42.01
2023-04-27T10:21:38.492Z,39.04
2023-04-27T10:23:39.644Z,38.36
2023-04-27T10:27:42.033Z,39.02
2023-04-27T10:29:43.162Z,40.54
2023-04-27T10:33:45.404Z,38.63
2023-04-27T10:37:47.795Z,38.65
2023-04-27T10:39:50.508Z,40.99
2023-04-27T10:43:52.489Z,41.86
2023-04-27T10:45:53.976Z,42.5
2023-04-27T10:49:57.351Z,42.55
2023-04-27T10:54:00.194Z,42.71
2023-04-27T10:56:01.378Z,44.59
2023-04-27T11:00:04.137Z,46.41
2023-04-27T11:04:07.592Z,42.32
2023-04-27T11:06:52.260Z,44.72
2023-04-27T11:08:53.432Z,41.17
2023-04-27T11:10:55.244Z,39.1
2023-04-27T11:14:57.788Z,40.68
2023-04-27T11:16:59.248Z,41.37
2023-04-27T11:21:01.972Z,39.9
2023-04-27T11:23:02.774Z,46.13
2023-04-27T11:27:05.183Z,43.16
2023-04-27T11:29:06.213Z,43.2
2023-04-27T11:31:07.574Z,42.18
2023-04-27T11:33:09.269Z,43.29
2023-04-27T11:37:18.252Z,46.03
2023-04-27T11:43:16.317Z,45.96
2023-04-27T11:47:19.451Z,43.97
2023-04-27T11:49:22.109Z,44.7
2023-04-27T11:53:23.052Z,44.75
2023-04-27T11:57:25.604Z,41.4
2023-04-27T11:59:26.523Z,45.31
2023-04-27T12:03:29.422Z,41.7
2023-04-27T12:05:29.970Z,45.64
2023-04-27T12:07:30.701Z,44.46
2023-04-27T12:09:32.196Z,43.49
2023-04-27T12:13:34.646Z,43.62
2023-04-27T12:15:35.648Z,40.22
2023-04-27T12:19:38.305Z,46.83
2023-04-27T12:21:39.495Z,43.59
2023-04-27T12:25:41.710Z,41.74
2023-04-27T12:29:45.048Z,42.85
2023-04-27T12:31:46.746Z,45.01
2023-04-27T12:35:49.437Z,41.24
2023-04-27T12:39:51.331Z,41.81
2023-04-27T12:41:52.390Z,42.37
2023-04-27T12:45:54.796Z,40.55
2023-04-27T12:48:02.350Z,38.84
2023-04-27T12:49:57.840Z,39.66
2023-04-27T12:51:59.181Z,40.39
2023-04-27T12:56:02.607Z,41.93
2023-04-27T12:58:03.712Z,40.34
2023-04-27T13:00:05.022Z,41.88
2023-04-27T13:02:06.273Z,43.29
2023-04-27T13:04:07.688Z,41.17
2023-04-27T13:08:19.226Z,41.63
2023-04-27T13:10:11.082Z,38.02
2023-04-27T13:12:12.492Z,40.51
2023-04-27T13:14:14.132Z,39.06
2023-04-27T13:18:16.743Z,39.95
2023-04-27T13:20:17.962Z,41.53
2023-04-27T13:24:20.291Z,39.15
2023-04-27T13:28:23.170Z,40.64
2023-04-27T13:30:24.538Z,43.25
2023-04-27T13:34:27.068Z,40.75
2023-04-27T13:36:28.567Z,40.42
2023-04-27T13:40:31.265Z,36.24
2023-04-27T13:44:33.189Z,41.13
2023-04-27T13:46:35.933Z,39.29
2023-04-27T13:50:38.276Z,39.31
2023-04-27T13:56:42.977Z,40.07
2023-04-27T14:00:45.142Z,39.54
2023-04-27T14:02:46.543Z,37.37
2023-04-27T14:06:48.981Z,38.86
2023-04-27T14:10:51.491Z,38.26
2023-04-27T14:12:52.872Z,39.74
2023-04-27T14:16:55.510Z,44.71
2023-04-27T14:18:56.657Z,45.36
2023-04-27T14:22:58.979Z,42.43
2023-04-27T14:27:01.865Z,39.35
2023-04-27T14:29:02.739Z,40.77
2023-04-27T14:33:05.411Z,38.33
2023-04-27T14:35:06.653Z,37.48
2023-04-27T14:39:08.805Z,35.04
2023-04-27T14:43:11.303Z,35.29
2023-04-27T14:45:12.434Z,36.42
2023-04-27T14:49:15.390Z,41.97
2023-04-27T14:53:17.065Z,40.3
2023-04-27T14:55:18.748Z,38.96
2023-04-27T14:59:21.713Z,40.71
2023-04-27T15:01:22.871Z,40.32
2023-04-27T15:05:25.058Z,41.8
2023-04-27T15:09:27.094Z,38.22
2023-04-27T15:11:28.064Z,38.96
2023-04-27T15:15:30.819Z,42.81
2023-04-27T15:17:31.686Z,43.38
2023-04-27T15:21:35.051Z,40.19
2023-04-27T15:25:37.244Z,40.06
2023-04-27T15:27:38.835Z,40.32
2023-04-27T15:31:41.420Z,40.14
2023-04-27T15:35:43.916Z,41.78
2023-04-27T15:37:45.559Z,40.64
2023-04-27T15:41:48.013Z,43.19
2023-04-27T15:43:49.070Z,43.48
2023-04-27T15:45:50.564Z,42.25
2023-04-27T15:47:52.183Z,43.31
2023-04-27T15:51:55.005Z,42.49
2023-04-27T15:53:56.315Z,42.84
2023-04-27T15:55:57.224Z,42.63
2023-04-27T15:57:58.603Z,46.28
2023-04-27T15:59:59.921Z,44.44
2023-04-27T16:04:02.052Z,38.13
2023-04-27T16:08:04.606Z,40.44
2023-04-27T16:10:06.190Z,39.83
2023-04-27T16:14:08.094Z,35.89
2023-04-27T16:16:09.729Z,36.66
2023-04-27T16:20:12.324Z,38.21
2023-04-27T16:24:14.660Z,40.7
2023-04-27T16:26:16.140Z,38.79
2023-04-27T16:30:18.346Z,42.42
2023-04-27T16:34:20.503Z,39.91
2023-04-27T16:36:21.545Z,42.42
2023-04-27T16:40:24.544Z,38.95
2023-04-27T16:42:25.844Z,40.88
2023-04-27T16:46:28.506Z,38.86
2023-04-27T16:50:31.144Z,38.99
2023-04-27T16:52:32.436Z,38.82
2023-04-27T16:56:35.906Z,39.7
2023-04-27T16:58:37.316Z,38.1
2023-04-27T17:02:43.048Z,36.53
2023-04-27T17:06:42.841Z,37.36
2023-04-27T17:08:43.997Z,37.54
2023-04-27T17:12:47.450Z,38.94
2023-04-27T17:16:49.672Z,39.63
2023-04-27T17:18:50.541Z,42.81
2023-04-27T17:22:52.917Z,41.53
2023-04-27T17:24:54.658Z,42.26
2023-04-27T17:26:55.908Z,43.19
2023-04-27T17:28:57.708Z,43.27
2023-04-27T17:33:00.123Z,45.12
2023-04-27T17:35:01.858Z,45.28
2023-04-27T17:39:05.396Z,45.36
2023-04-27T17:41:06.309Z,46.02
2023-04-27T17:45:08.099Z,45.17
2023-04-27T17:49:11.508Z,45.86
2023-04-27T17:51:56.274Z,46.47
2023-04-27T17:55:58.741Z,47.37
2023-04-27T18:00:01.340Z,48.27
2023-04-27T18:02:02.646Z,48.47
2023-04-27T18:06:04.701Z,49.5
2023-04-27T18:10:06.901Z,52.2
2023-04-27T18:12:08.338Z,51.84
2023-04-27T18:16:11.257Z,52.28
2023-04-27T18:18:13.074Z,52.22
2023-04-27T18:22:15.347Z,53.48
2023-04-27T18:26:17.919Z,55.47
2023-04-27T18:28:19.543Z,54.81
2023-04-27T18:32:22.206Z,54.91
2023-04-27T18:34:23.187Z,55.52
2023-04-27T18:38:26.202Z,59.59
2023-04-27T18:42:29.155Z,60.59
2023-04-27T18:44:30.509Z,60.68
2023-04-27T18:48:33.055Z,60.78
2023-04-27T18:52:36.463Z,62.02
2023-04-27T18:54:37.837Z,61.51
2023-04-27T18:58:40.353Z,60.45
2023-04-27T19:00:41.648Z,60.1
2023-04-27T19:02:42.995Z,60.93
2023-04-27T19:04:48.870Z,61.84
2023-04-27T19:08:47.647Z,62.85
2023-04-27T19:10:48.868Z,62.38
2023-04-27T19:14:51.322Z,63.99
2023-04-27T19:16:52.328Z,64.34
2023-04-27T19:20:54.397Z,64.01
2023-04-27T19:22:56.176Z,64.77
2023-04-27T19:24:57.373Z,66.01
2023-04-27T19:26:58.967Z,66.41
2023-04-27T19:31:02.271Z,66.88
2023-04-27T19:33:03.612Z,66.29
2023-04-27T19:37:05.794Z,66.05
2023-04-27T19:41:08.920Z,65.79
2023-04-27T19:43:10.033Z,66.09
2023-04-27T19:47:12.018Z,67.25
2023-04-27T19:51:14.966Z,67.71
2023-04-27T19:53:16.312Z,68.46
2023-04-27T19:57:20.040Z,69.27
2023-04-27T19:59:21.822Z,68.61
2023-04-27T20:03:25.091Z,67.6
2023-04-27T20:07:28.174Z,69.57
2023-04-27T20:09:29.963Z,69.57
2023-04-27T20:13:32.328Z,71.85
2023-04-27T20:15:34.020Z,72.08
2023-04-27T20:19:37.454Z,72.59
2023-04-27T20:23:40.287Z,72.8
2023-04-27T20:25:42.189Z,73.22
2023-04-27T20:29:45.421Z,72.8
2023-04-27T20:33:48.256Z,73.36
2023-04-27T20:35:49.402Z,73.35
2023-04-27T20:39:52.630Z,75.27
2023-04-27T20:41:54.336Z,75.02
2023-04-27T20:45:56.461Z,76.13
2023-04-27T20:49:59.415Z,77.2
2023-04-27T20:52:01.120Z,78.31
2023-04-27T20:56:03.836Z,78.55
2023-04-27T20:58:05.221Z,79.4
2023-04-27T21:02:08.638Z,77.98
2023-04-27T21:06:10.832Z,78.38
2023-04-27T21:08:12.328Z,78.76
2023-04-27T21:12:15.571Z,77.75
2023-04-27T21:16:18.497Z,78.86
2023-04-27T21:18:29.506Z,78.87
2023-04-27T21:22:23.201Z,79.32
2023-04-27T21:24:25.123Z,78.81
2023-04-27T21:28:28.145Z,80.11
2023-04-27T21:32:31.158Z,80.82
2023-04-27T21:34:32.494Z,80.93
2023-04-27T21:38:35.170Z,80.87
2023-04-27T21:40:36.480Z,81.31
2023-04-27T21:44:38.945Z,81.52
2023-04-27T21:48:41.952Z,81.05
2023-04-27T21:50:43.342Z,80.91
2023-04-27T21:54:46.433Z,81.17
2023-04-27T21:58:49.450Z,80.55
2023-04-27T22:00:50.501Z,80.8
2023-04-27T22:04:53.646Z,82.02
2023-04-27T22:06:55.468Z,82.45
2023-04-27T22:10:58.392Z,82.2
2023-04-27T22:15:01.523Z,82.48
2023-04-27T22:17:03.089Z,82.85
2023-04-27T22:21:06.531Z,83.98
2023-04-27T22:23:07.566Z,84.25
2023-04-27T22:27:10.122Z,84.44
2023-04-27T22:31:13.314Z,84.92
2023-04-27T22:33:15.136Z,84.52
2023-04-27T22:37:17.183Z,83.93
2023-04-27T22:41:19.616Z,83.86
2023-04-27T22:43:21.626Z,83.96
2023-04-27T22:47:24.927Z,84.67
2023-04-27T22:49:26.255Z,84.66
2023-04-27T22:51:27.446Z,84.57
2023-04-27T22:53:28.985Z,84.46
2023-04-27T22:57:31.942Z,84.36
2023-04-27T22:59:32.977Z,84.99
2023-04-27T23:01:34.572Z,84.85
2023-04-27T23:03:35.921Z,84.58
2023-04-27T23:05:37.245Z,84.59
2023-04-27T23:09:39.754Z,84.54
2023-04-27T23:11:41.011Z,84.42
2023-04-27T23:13:42.931Z,84.38
2023-04-27T23:15:44.168Z,84.63
2023-04-27T23:19:46.819Z,85.04
2023-04-27T23:21:48.623Z,85.5
2023-04-27T23:25:51.053Z,85.55
2023-04-27T23:29:53.860Z,85.85
2023-04-27T23:31:55.128Z,85.93
2023-04-27T23:35:59.300Z,86.24
2023-04-27T23:40:01.821Z,86.52
2023-04-27T23:42:02.943Z,86.57
2023-04-27T23:46:05.602Z,86.27
2023-04-27T23:48:06.407Z,86.34
2023-04-27T23:52:09.352Z,86.84
2023-04-27T23:56:11.366Z,86.4
2023-04-27T23:58:13.265Z,86.26
